createdAt,value
2022-09-25T00:00:08.259Z,2.10
2022-09-25T00:05:07.743Z,2.08
2022-09-25T00:10:08.465Z,2.25
2022-09-25T00:15:08.166Z,1.98
2022-09-25T00:20:07.909Z,2.35
2022-09-25T00:25:07.646Z,1.52
2022-09-25T00:30:08.330Z,1.92
2022-09-25T00:35:08.040Z,2.25
2022-09-25T00:40:08.002Z,2.10
2022-09-25T00:45:07.782Z,2.00
2022-09-25T00:50:10.942Z,1.80
2022-09-25T00:55:07.603Z,1.67
2022-09-25T01:00:08.296Z,1.83
2022-09-25T01:05:13.817Z,1.35
2022-09-25T01:10:07.673Z,1.63
2022-09-25T01:15:11.086Z,1.65
2022-09-25T01:20:07.816Z,1.60
2022-09-25T01:25:08.505Z,1.60
2022-09-25T01:30:08.185Z,1.63
2022-09-25T01:35:07.919Z,1.63
2022-09-25T01:40:08.674Z,1.42
2022-09-25T01:45:08.448Z,1.75
2022-09-25T01:50:08.208Z,2.17
2022-09-25T01:55:07.906Z,1.70
2022-09-25T02:00:08.634Z,2.00
2022-09-25T02:05:18.362Z,0
2022-09-25T02:10:08.043Z,1.80
2022-09-25T02:15:07.728Z,1.63
2022-09-25T02:20:08.451Z,1.73
2022-09-25T02:25:08.176Z,2.13
2022-09-25T02:30:07.852Z,1.48
2022-09-25T02:35:08.520Z,1.50
2022-09-25T02:40:08.346Z,1.80
2022-09-25T02:45:08.061Z,1.60
2022-09-25T02:50:13.446Z,1.92
2022-09-25T02:55:08.222Z,1.58
2022-09-25T03:00:07.892Z,1.27
2022-09-25T03:05:08.596Z,1.75
2022-09-25T03:10:08.285Z,1.80
2022-09-25T03:15:07.982Z,1.80
2022-09-25T03:20:07.667Z,1.70
2022-09-25T03:25:08.368Z,1.60
2022-09-25T03:30:08.060Z,1.60
2022-09-25T03:35:07.741Z,2.00
2022-09-25T03:40:08.527Z,1.70
2022-09-25T03:45:08.289Z,1.60
2022-09-25T03:50:07.972Z,1.27
2022-09-25T03:55:07.681Z,1.70
2022-09-25T04:00:08.366Z,1.58
2022-09-25T04:05:02.130Z,1.55
2022-09-25T04:10:01.960Z,1.88
2022-09-25T04:15:01.771Z,1.58
2022-09-25T04:20:02.543Z,1.70
2022-09-25T04:25:02.445Z,1.60
2022-09-25T04:30:02.182Z,1.38
2022-09-25T04:35:02.033Z,1.60
2022-09-25T04:40:01.832Z,1.38
2022-09-25T04:45:02.625Z,1.63
2022-09-25T04:50:02.468Z,1.77
2022-09-25T04:55:02.386Z,1.90
2022-09-25T05:00:02.243Z,1.38
2022-09-25T05:05:02.017Z,1.30
2022-09-25T05:10:01.939Z,1.90
2022-09-25T05:15:02.718Z,1.70
2022-09-25T05:20:02.494Z,1.60
2022-09-25T05:25:02.264Z,2.00
2022-09-25T05:30:02.229Z,1.67
2022-09-25T05:35:01.991Z,1.83
2022-09-25T05:40:01.843Z,1.63
2022-09-25T05:45:07.361Z,1.90
2022-09-25T05:50:02.411Z,2.45
2022-09-25T05:55:02.144Z,2.30
2022-09-25T06:00:01.961Z,3.15
2022-09-25T06:05:01.805Z,2.38
2022-09-25T06:10:02.636Z,1.80
2022-09-25T06:15:02.499Z,2.25
2022-09-25T06:20:02.498Z,2.90
2022-09-25T06:25:02.342Z,2.40
2022-09-25T06:30:02.068Z,2.08
2022-09-25T06:35:01.888Z,2.30
2022-09-25T06:40:02.665Z,2.45
2022-09-25T06:45:02.566Z,2.17
2022-09-25T06:50:02.405Z,2.22
2022-09-25T06:55:02.335Z,2.60
2022-09-25T07:00:02.242Z,1.80
2022-09-25T07:05:01.994Z,2.05
2022-09-25T07:10:01.826Z,2.08
2022-09-25T07:15:02.667Z,2.17
2022-09-25T07:20:02.494Z,2.10
2022-09-25T07:25:02.245Z,2.08
2022-09-25T07:30:02.068Z,2.25
2022-09-25T07:35:01.865Z,1.90
2022-09-25T07:40:02.667Z,2.28
2022-09-25T07:45:02.483Z,2.13
2022-09-25T07:50:02.365Z,1.70
2022-09-25T07:55:02.140Z,2.10
2022-09-25T08:00:01.979Z,2.15
2022-09-25T08:05:01.777Z,2.15
2022-09-25T08:10:02.540Z,2.50
2022-09-25T08:15:02.290Z,1.80
2022-09-25T08:20:02.123Z,2.00
2022-09-25T08:25:01.907Z,1.48
2022-09-25T08:30:02.699Z,2.10
2022-09-25T08:35:02.564Z,2.15
2022-09-25T08:40:02.421Z,2.03
2022-09-25T08:45:20.661Z,0
2022-09-25T08:50:02.194Z,1.55
2022-09-25T08:55:02.089Z,1.80
2022-09-25T09:00:02.602Z,1.67
2022-09-25T09:05:02.068Z,1.90
2022-09-25T09:10:02.018Z,1.52
2022-09-25T09:15:01.838Z,1.42
2022-09-25T09:20:12.661Z,0
2022-09-25T09:25:02.436Z,1.48
2022-09-25T09:30:05.756Z,1.30
2022-09-25T09:35:06.264Z,1.08
2022-09-25T09:40:02.707Z,1.10
2022-09-25T09:45:12.582Z,0
2022-09-25T09:50:02.362Z,1.13
2022-09-25T09:55:02.165Z,1.10
2022-09-25T10:00:05.039Z,1.25
2022-09-25T10:05:01.965Z,1.27
2022-09-25T10:10:01.697Z,1.10
2022-09-25T10:15:02.478Z,1.20
2022-09-25T10:20:02.292Z,0.90
2022-09-25T10:25:02.187Z,1.10
2022-09-25T10:30:02.025Z,1.00
2022-09-25T10:35:01.892Z,0.90
2022-09-25T10:40:02.700Z,1.05
2022-09-25T10:45:02.430Z,1.25
2022-09-25T10:50:02.175Z,1.50
2022-09-25T10:55:02.007Z,0.93
2022-09-25T11:00:01.816Z,0.98
2022-09-25T11:05:02.598Z,0.80
2022-09-25T11:10:02.445Z,0.80
2022-09-25T11:15:02.266Z,0.90
2022-09-25T11:20:02.061Z,0.80
2022-09-25T11:25:01.935Z,0.80
2022-09-25T11:30:02.833Z,0.88
2022-09-25T11:35:03.526Z,1.00
2022-09-25T11:40:12.513Z,0
2022-09-25T11:45:02.523Z,1.00
2022-09-25T11:50:02.275Z,1.33
2022-09-25T11:55:02.207Z,1.20
2022-09-25T12:00:02.109Z,1.70
2022-09-25T12:05:03.498Z,1.17
2022-09-25T12:10:02.314Z,1.00
2022-09-25T12:15:02.134Z,0.90
2022-09-25T12:20:01.961Z,0.88
2022-09-25T12:25:01.774Z,0.93
2022-09-25T12:30:02.540Z,0.88
2022-09-25T12:35:02.369Z,1.08
2022-09-25T12:40:02.184Z,1.13
2022-09-25T12:45:01.898Z,1.05
2022-09-25T12:50:02.691Z,0.90
2022-09-25T12:55:02.524Z,1.10
2022-09-25T13:00:02.306Z,1.05
2022-09-25T13:05:02.140Z,0.70
2022-09-25T13:10:01.873Z,0.80
2022-09-25T13:15:02.635Z,0.85
2022-09-25T13:20:02.436Z,0.95
2022-09-25T13:25:02.218Z,1.10
2022-09-25T13:30:02.001Z,0.90
2022-09-25T13:35:01.919Z,0.82
2022-09-25T13:40:02.714Z,0.75
2022-09-25T13:45:09.935Z,0.80
2022-09-25T13:50:12.835Z,0
2022-09-25T13:55:02.714Z,0.77
2022-09-25T14:00:02.526Z,0.70
2022-09-25T14:05:02.543Z,0.60
2022-09-25T14:10:02.503Z,0.50
2022-09-25T14:15:02.415Z,1.00
2022-09-25T14:20:02.373Z,0.90
2022-09-25T14:25:02.287Z,0.95
2022-09-25T14:30:02.082Z,0.55
2022-09-25T14:35:01.929Z,0.80
2022-09-25T14:40:02.793Z,1.00
2022-09-25T14:45:02.618Z,0.70
2022-09-25T14:50:04.795Z,0.57
2022-09-25T14:55:02.693Z,0.60
2022-09-25T15:00:06.167Z,0.98
2022-09-25T15:05:01.927Z,0.80
2022-09-25T15:10:02.768Z,0.85
2022-09-25T15:15:02.632Z,0.70
2022-09-25T15:20:02.508Z,1.05
2022-09-25T15:25:02.402Z,1.10
2022-09-25T15:30:02.299Z,0.98
2022-09-25T15:35:02.119Z,0.80
2022-09-25T15:40:01.990Z,0.70
2022-09-25T15:45:01.812Z,0.93
2022-09-25T15:50:02.593Z,1.00
2022-09-25T15:55:02.468Z,0.70
2022-09-25T16:00:02.315Z,0.73
2022-09-25T16:05:02.183Z,0.40
2022-09-25T16:10:01.950Z,0.93
2022-09-25T16:15:01.796Z,1.13
2022-09-25T16:20:12.610Z,0
2022-09-25T16:25:02.350Z,1.00
2022-09-25T16:30:04.392Z,3.97
2022-09-25T16:35:02.562Z,1.20
2022-09-25T16:40:02.354Z,1.00
2022-09-25T16:45:02.205Z,0.85
2022-09-25T16:50:02.257Z,0.80
2022-09-25T16:55:02.131Z,0.90
2022-09-25T17:00:02.190Z,0.80
2022-09-25T17:05:02.133Z,0.80
2022-09-25T17:10:02.052Z,0.70
2022-09-25T17:15:01.961Z,0.80
2022-09-25T17:20:01.858Z,0.68
2022-09-25T17:25:02.769Z,1.13
2022-09-25T17:30:02.594Z,1.33
2022-09-25T17:35:02.447Z,1.20
2022-09-25T17:40:02.478Z,1.30
2022-09-25T17:45:02.293Z,1.00
2022-09-25T17:50:02.177Z,1.10
2022-09-25T17:55:01.954Z,1.00
2022-09-25T18:00:01.785Z,1.15
2022-09-25T18:05:03.041Z,1.17
2022-09-25T18:10:01.826Z,1.00
2022-09-25T18:15:02.567Z,0.90
2022-09-25T18:20:02.340Z,0.90
2022-09-25T18:25:02.135Z,0.60
2022-09-25T18:30:01.989Z,0.63
2022-09-25T18:35:01.810Z,0.85
2022-09-25T18:40:02.672Z,0.80
2022-09-25T18:45:02.481Z,1.10
2022-09-25T18:50:02.325Z,0.70
2022-09-25T18:55:02.130Z,0.90
2022-09-25T19:00:01.872Z,0.70
2022-09-25T19:05:02.725Z,0.88
2022-09-25T19:10:02.564Z,0.80
2022-09-25T19:15:02.401Z,1.02
2022-09-25T19:20:02.212Z,1.33
2022-09-25T19:25:02.042Z,1.20
2022-09-25T19:30:02.087Z,1.10
2022-09-25T19:35:01.991Z,1.20
2022-09-25T19:40:01.924Z,1.27
2022-09-25T19:45:02.982Z,1.60
2022-09-25T19:50:01.892Z,1.73
2022-09-25T19:55:02.752Z,1.90
2022-09-25T20:00:02.640Z,1.65
2022-09-25T20:05:02.555Z,1.52
2022-09-25T20:10:02.339Z,1.60
2022-09-25T20:15:02.166Z,1.98
2022-09-25T20:20:02.083Z,1.73
2022-09-25T20:25:01.916Z,1.58
2022-09-25T20:30:04.950Z,1.58
2022-09-25T20:35:01.668Z,1.50
2022-09-25T20:40:02.419Z,1.33
2022-09-25T20:45:02.134Z,1.60
2022-09-25T20:50:01.880Z,1.55
2022-09-25T20:55:02.706Z,1.30
2022-09-25T21:00:02.431Z,1.80
2022-09-25T21:05:02.192Z,2.05
2022-09-25T21:10:02.016Z,1.60
2022-09-25T21:15:01.773Z,1.75
2022-09-25T21:20:02.605Z,1.60
2022-09-25T21:25:02.406Z,1.58
2022-09-25T21:30:02.278Z,1.60
2022-09-25T21:35:21.889Z,1.50
2022-09-25T21:40:08.610Z,1.60
2022-09-25T21:45:08.296Z,1.63
2022-09-25T21:50:08.006Z,1.63
2022-09-25T21:55:07.705Z,2.03
2022-09-25T22:00:08.459Z,2.00
2022-09-25T22:05:08.148Z,1.40
2022-09-25T22:10:07.850Z,1.60
2022-09-25T22:15:08.539Z,1.80
2022-09-25T22:20:08.250Z,2.10
2022-09-25T22:25:07.917Z,1.83
2022-09-25T22:30:08.619Z,2.13
2022-09-25T22:35:08.352Z,2.10
2022-09-25T22:40:08.033Z,2.42
2022-09-25T22:45:07.714Z,2.15
2022-09-25T22:50:08.437Z,2.70
2022-09-25T22:55:08.158Z,2.40
2022-09-25T23:01:01.121Z,2.15
2022-09-25T23:05:07.932Z,2.53
2022-09-25T23:10:07.884Z,2.05
2022-09-25T23:15:08.581Z,2.38
2022-09-25T23:20:08.271Z,2.33
2022-09-25T23:25:07.953Z,2.28
2022-09-25T23:30:07.625Z,2.75
2022-09-25T23:35:08.340Z,1.98
2022-09-25T23:40:12.314Z,2.67
2022-09-25T23:45:07.952Z,2.58
2022-09-25T23:50:07.628Z,2.38
2022-09-25T23:55:08.342Z,2.25
